sensor_id;sensor_type;location;lat;lon;timestamp;P1;durP1;ratioP1;P2;durP2;ratioP2
71777;SDS011;59609;52.430;4.668;2023-05-20T00:00:25;12.15;;;4.00;;
71777;SDS011;59609;52.430;4.668;2023-05-20T00:02:51;12.50;;;3.53;;
71777;SDS011;59609;52.430;4.668;2023-05-20T00:05:16;11.63;;;3.85;;
71777;SDS011;59609;52.430;4.668;2023-05-20T00:07:42;9.73;;;4.60;;
71777;SDS011;59609;52.430;4.668;2023-05-20T00:10:07;11.60;;;3.30;;
71777;SDS011;59609;52.430;4.668;2023-05-20T00:12:33;9.05;;;3.50;;
71777;SDS011;59609;52.430;4.668;2023-05-20T00:14:59;7.97;;;3.63;;
71777;SDS011;59609;52.430;4.668;2023-05-20T00:17:25;9.65;;;4.03;;
71777;SDS011;59609;52.430;4.668;2023-05-20T00:19:52;8.75;;;3.47;;
71777;SDS011;59609;52.430;4.668;2023-05-20T00:22:17;6.78;;;3.20;;
71777;SDS011;59609;52.430;4.668;2023-05-20T00:24:43;12.10;;;3.90;;
71777;SDS011;59609;52.430;4.668;2023-05-20T00:27:08;12.57;;;4.10;;
71777;SDS011;59609;52.430;4.668;2023-05-20T00:29:34;9.43;;;4.13;;
71777;SDS011;59609;52.430;4.668;2023-05-20T00:31:59;10.63;;;4.20;;
71777;SDS011;59609;52.430;4.668;2023-05-20T00:34:25;10.38;;;3.58;;
71777;SDS011;59609;52.430;4.668;2023-05-20T00:36:50;11.25;;;4.15;;
71777;SDS011;59609;52.430;4.668;2023-05-20T00:39:16;8.70;;;3.38;;
71777;SDS011;59609;52.430;4.668;2023-05-20T00:41:41;8.20;;;3.83;;
71777;SDS011;59609;52.430;4.668;2023-05-20T00:44:07;15.90;;;4.50;;
71777;SDS011;59609;52.430;4.668;2023-05-20T00:46:32;9.85;;;4.38;;
71777;SDS011;59609;52.430;4.668;2023-05-20T00:48:58;10.50;;;3.78;;
71777;SDS011;59609;52.430;4.668;2023-05-20T00:51:24;9.50;;;3.83;;
71777;SDS011;59609;52.430;4.668;2023-05-20T00:53:50;9.95;;;4.07;;
71777;SDS011;59609;52.430;4.668;2023-05-20T00:56:15;9.70;;;4.25;;
71777;SDS011;59609;52.430;4.668;2023-05-20T00:58:42;12.77;;;4.07;;
71777;SDS011;59609;52.430;4.668;2023-05-20T01:01:08;7.50;;;4.03;;
71777;SDS011;59609;52.430;4.668;2023-05-20T01:03:34;10.45;;;4.38;;
71777;SDS011;59609;52.430;4.668;2023-05-20T01:05:59;14.25;;;4.57;;
71777;SDS011;59609;52.430;4.668;2023-05-20T01:08:25;11.38;;;4.25;;
71777;SDS011;59609;52.430;4.668;2023-05-20T01:11:14;12.52;;;4.50;;
71777;SDS011;59609;52.430;4.668;2023-05-20T01:13:56;7.60;;;4.28;;
71777;SDS011;59609;52.430;4.668;2023-05-20T01:16:25;11.80;;;4.95;;
71777;SDS011;59609;52.430;4.668;2023-05-20T01:18:53;9.30;;;4.32;;
71777;SDS011;59609;52.430;4.668;2023-05-20T01:21:21;7.43;;;3.70;;
71777;SDS011;59609;52.430;4.668;2023-05-20T01:23:47;10.75;;;4.13;;
71777;SDS011;59609;52.430;4.668;2023-05-20T01:26:13;11.20;;;4.38;;
71777;SDS011;59609;52.430;4.668;2023-05-20T01:28:38;10.90;;;4.07;;
71777;SDS011;59609;52.430;4.668;2023-05-20T01:31:09;10.52;;;4.65;;
71777;SDS011;59609;52.430;4.668;2023-05-20T01:33:39;15.50;;;4.47;;
71777;SDS011;59609;52.430;4.668;2023-05-20T01:36:07;11.15;;;4.60;;
71777;SDS011;59609;52.430;4.668;2023-05-20T01:38:34;13.40;;;5.03;;
71777;SDS011;59609;52.430;4.668;2023-05-20T01:41:00;9.82;;;4.05;;
71777;SDS011;59609;52.430;4.668;2023-05-20T01:43:29;13.13;;;4.00;;
71777;SDS011;59609;52.430;4.668;2023-05-20T01:45:54;10.75;;;4.30;;
71777;SDS011;59609;52.430;4.668;2023-05-20T01:48:20;9.77;;;3.80;;
71777;SDS011;59609;52.430;4.668;2023-05-20T01:50:45;12.65;;;5.60;;
71777;SDS011;59609;52.430;4.668;2023-05-20T01:53:10;12.18;;;4.65;;
71777;SDS011;59609;52.430;4.668;2023-05-20T01:55:37;12.43;;;4.72;;
71777;SDS011;59609;52.430;4.668;2023-05-20T01:58:02;11.52;;;5.15;;
71777;SDS011;59609;52.430;4.668;2023-05-20T02:00:28;12.55;;;5.18;;
71777;SDS011;59609;52.430;4.668;2023-05-20T02:02:54;8.93;;;4.78;;
71777;SDS011;59609;52.430;4.668;2023-05-20T02:05:20;14.60;;;4.78;;
71777;SDS011;59609;52.430;4.668;2023-05-20T02:07:45;11.43;;;4.75;;
71777;SDS011;59609;52.430;4.668;2023-05-20T02:10:10;10.63;;;4.57;;
71777;SDS011;59609;52.430;4.668;2023-05-20T02:12:36;14.50;;;5.00;;
71777;SDS011;59609;52.430;4.668;2023-05-20T02:15:01;10.02;;;4.70;;
71777;SDS011;59609;52.430;4.668;2023-05-20T02:17:27;13.07;;;5.10;;
71777;SDS011;59609;52.430;4.668;2023-05-20T02:19:52;12.63;;;5.03;;
71777;SDS011;59609;52.430;4.668;2023-05-20T02:22:18;12.40;;;4.60;;
71777;SDS011;59609;52.430;4.668;2023-05-20T02:24:43;11.63;;;4.60;;
71777;SDS011;59609;52.430;4.668;2023-05-20T02:27:09;11.63;;;5.28;;
71777;SDS011;59609;52.430;4.668;2023-05-20T02:29:34;12.13;;;4.50;;
71777;SDS011;59609;52.430;4.668;2023-05-20T02:32:00;14.93;;;5.22;;
71777;SDS011;59609;52.430;4.668;2023-05-20T02:34:26;11.45;;;5.03;;
71777;SDS011;59609;52.430;4.668;2023-05-20T02:36:51;19.75;;;5.18;;
71777;SDS011;59609;52.430;4.668;2023-05-20T02:39:17;14.63;;;5.63;;
71777;SDS011;59609;52.430;4.668;2023-05-20T02:41:42;13.10;;;5.35;;
71777;SDS011;59609;52.430;4.668;2023-05-20T02:44:08;14.77;;;4.70;;
71777;SDS011;59609;52.430;4.668;2023-05-20T02:46:33;12.10;;;4.60;;
71777;SDS011;59609;52.430;4.668;2023-05-20T02:48:59;8.27;;;4.00;;
71777;SDS011;59609;52.430;4.668;2023-05-20T02:51:24;13.00;;;5.03;;
71777;SDS011;59609;52.430;4.668;2023-05-20T02:53:50;10.48;;;5.07;;
71777;SDS011;59609;52.430;4.668;2023-05-20T02:56:15;12.07;;;4.93;;
71777;SDS011;59609;52.430;4.668;2023-05-20T02:58:45;14.68;;;5.07;;
71777;SDS011;59609;52.430;4.668;2023-05-20T03:01:10;12.63;;;4.68;;
71777;SDS011;59609;52.430;4.668;2023-05-20T03:03:36;12.57;;;4.10;;
71777;SDS011;59609;52.430;4.668;2023-05-20T03:06:02;10.85;;;5.13;;
71777;SDS011;59609;52.430;4.668;2023-05-20T03:08:27;13.20;;;4.78;;
71777;SDS011;59609;52.430;4.668;2023-05-20T03:10:53;13.70;;;5.15;;
71777;SDS011;59609;52.430;4.668;2023-05-20T03:13:19;16.42;;;5.03;;
71777;SDS011;59609;52.430;4.668;2023-05-20T03:15:44;11.85;;;5.05;;
71777;SDS011;59609;52.430;4.668;2023-05-20T03:18:10;10.77;;;4.65;;
71777;SDS011;59609;52.430;4.668;2023-05-20T03:20:39;9.85;;;4.65;;
71777;SDS011;59609;52.430;4.668;2023-05-20T03:23:05;12.95;;;4.53;;
71777;SDS011;59609;52.430;4.668;2023-05-20T03:25:31;17.60;;;4.95;;
71777;SDS011;59609;52.430;4.668;2023-05-20T03:27:57;12.20;;;4.65;;
71777;SDS011;59609;52.430;4.668;2023-05-20T03:30:23;11.77;;;5.40;;
71777;SDS011;59609;52.430;4.668;2023-05-20T03:32:49;14.15;;;4.80;;
71777;SDS011;59609;52.430;4.668;2023-05-20T03:35:14;11.82;;;5.03;;
71777;SDS011;59609;52.430;4.668;2023-05-20T03:37:40;11.30;;;4.50;;
71777;SDS011;59609;52.430;4.668;2023-05-20T03:40:06;11.75;;;5.20;;
71777;SDS011;59609;52.430;4.668;2023-05-20T03:44:59;13.50;;;5.40;;
71777;SDS011;59609;52.430;4.668;2023-05-20T03:47:25;14.73;;;4.65;;
71777;SDS011;59609;52.430;4.668;2023-05-20T03:49:51;9.07;;;4.63;;
71777;SDS011;59609;52.430;4.668;2023-05-20T03:52:17;16.95;;;5.32;;
71777;SDS011;59609;52.430;4.668;2023-05-20T03:54:42;10.93;;;4.82;;
71777;SDS011;59609;52.430;4.668;2023-05-20T03:57:08;12.80;;;5.32;;
71777;SDS011;59609;52.430;4.668;2023-05-20T03:59:34;12.73;;;5.15;;
71777;SDS011;59609;52.430;4.668;2023-05-20T04:02:00;13.30;;;5.18;;
71777;SDS011;59609;52.430;4.668;2023-05-20T04:04:26;12.38;;;5.05;;
71777;SDS011;59609;52.430;4.668;2023-05-20T04:06:51;12.85;;;5.93;;
71777;SDS011;59609;52.430;4.668;2023-05-20T04:09:18;8.48;;;4.53;;
71777;SDS011;59609;52.430;4.668;2023-05-20T04:11:45;10.77;;;4.97;;
71777;SDS011;59609;52.430;4.668;2023-05-20T04:14:10;13.52;;;5.43;;
71777;SDS011;59609;52.430;4.668;2023-05-20T04:16:36;13.52;;;5.20;;
71777;SDS011;59609;52.430;4.668;2023-05-20T04:19:02;9.90;;;5.68;;
71777;SDS011;59609;52.430;4.668;2023-05-20T04:21:27;14.38;;;5.13;;
71777;SDS011;59609;52.430;4.668;2023-05-20T04:23:53;10.65;;;4.82;;
71777;SDS011;59609;52.430;4.668;2023-05-20T04:26:18;11.20;;;5.05;;
71777;SDS011;59609;52.430;4.668;2023-05-20T04:28:44;11.02;;;5.13;;
71777;SDS011;59609;52.430;4.668;2023-05-20T04:31:12;11.52;;;4.78;;
71777;SDS011;59609;52.430;4.668;2023-05-20T04:33:38;12.45;;;4.90;;
71777;SDS011;59609;52.430;4.668;2023-05-20T04:36:05;9.98;;;4.35;;
71777;SDS011;59609;52.430;4.668;2023-05-20T04:38:32;10.35;;;4.60;;
71777;SDS011;59609;52.430;4.668;2023-05-20T04:40:57;11.90;;;4.72;;
71777;SDS011;59609;52.430;4.668;2023-05-20T04:43:27;11.25;;;4.80;;
71777;SDS011;59609;52.430;4.668;2023-05-20T04:45:56;9.30;;;4.47;;
71777;SDS011;59609;52.430;4.668;2023-05-20T04:48:21;10.38;;;4.38;;
71777;SDS011;59609;52.430;4.668;2023-05-20T04:50:48;11.23;;;4.78;;
71777;SDS011;59609;52.430;4.668;2023-05-20T04:53:17;14.65;;;5.15;;
71777;SDS011;59609;52.430;4.668;2023-05-20T04:55:43;12.40;;;4.72;;
71777;SDS011;59609;52.430;4.668;2023-05-20T04:58:09;10.13;;;4.35;;
71777;SDS011;59609;52.430;4.668;2023-05-20T05:00:41;8.35;;;4.30;;
71777;SDS011;59609;52.430;4.668;2023-05-20T05:03:07;9.25;;;4.30;;
71777;SDS011;59609;52.430;4.668;2023-05-20T05:05:34;10.70;;;3.90;;
71777;SDS011;59609;52.430;4.668;2023-05-20T05:08:01;9.88;;;4.15;;
71777;SDS011;59609;52.430;4.668;2023-05-20T05:10:28;12.45;;;3.88;;
71777;SDS011;59609;52.430;4.668;2023-05-20T05:12:53;6.97;;;3.25;;
71777;SDS011;59609;52.430;4.668;2023-05-20T05:15:18;12.70;;;3.92;;
71777;SDS011;59609;52.430;4.668;2023-05-20T05:17:44;11.20;;;4.22;;
71777;SDS011;59609;52.430;4.668;2023-05-20T05:20:09;9.57;;;4.47;;
71777;SDS011;59609;52.430;4.668;2023-05-20T05:22:35;10.18;;;3.78;;
71777;SDS011;59609;52.430;4.668;2023-05-20T05:25:01;12.65;;;4.60;;
71777;SDS011;59609;52.430;4.668;2023-05-20T05:27:27;8.15;;;3.88;;
71777;SDS011;59609;52.430;4.668;2023-05-20T05:29:53;7.07;;;3.85;;
71777;SDS011;59609;52.430;4.668;2023-05-20T05:32:18;11.63;;;4.22;;
71777;SDS011;59609;52.430;4.668;2023-05-20T05:34:44;10.82;;;4.93;;
71777;SDS011;59609;52.430;4.668;2023-05-20T05:37:09;8.27;;;4.13;;
71777;SDS011;59609;52.430;4.668;2023-05-20T05:39:35;8.77;;;3.70;;
71777;SDS011;59609;52.430;4.668;2023-05-20T05:42:01;7.97;;;3.63;;
71777;SDS011;59609;52.430;4.668;2023-05-20T05:44:28;9.68;;;4.00;;
71777;SDS011;59609;52.430;4.668;2023-05-20T05:46:53;12.68;;;3.63;;
71777;SDS011;59609;52.430;4.668;2023-05-20T05:49:19;9.52;;;4.22;;
71777;SDS011;59609;52.430;4.668;2023-05-20T05:51:44;11.43;;;3.85;;
71777;SDS011;59609;52.430;4.668;2023-05-20T05:54:10;9.05;;;4.05;;
71777;SDS011;59609;52.430;4.668;2023-05-20T05:56:35;7.32;;;3.58;;
71777;SDS011;59609;52.430;4.668;2023-05-20T05:59:00;11.60;;;3.80;;
71777;SDS011;59609;52.430;4.668;2023-05-20T06:01:26;7.00;;;3.85;;
71777;SDS011;59609;52.430;4.668;2023-05-20T06:03:52;7.18;;;3.65;;
71777;SDS011;59609;52.430;4.668;2023-05-20T06:06:17;10.32;;;3.70;;
71777;SDS011;59609;52.430;4.668;2023-05-20T06:08:43;6.15;;;3.53;;
71777;SDS011;59609;52.430;4.668;2023-05-20T06:11:08;8.25;;;4.15;;
71777;SDS011;59609;52.430;4.668;2023-05-20T06:13:34;8.43;;;3.70;;
71777;SDS011;59609;52.430;4.668;2023-05-20T06:16:00;9.50;;;4.22;;
71777;SDS011;59609;52.430;4.668;2023-05-20T06:18:26;9.75;;;3.92;;
71777;SDS011;59609;52.430;4.668;2023-05-20T06:20:58;8.05;;;3.97;;
71777;SDS011;59609;52.430;4.668;2023-05-20T06:23:24;6.00;;;3.00;;
71777;SDS011;59609;52.430;4.668;2023-05-20T06:25:50;6.45;;;3.60;;
71777;SDS011;59609;52.430;4.668;2023-05-20T06:28:16;9.80;;;3.47;;
71777;SDS011;59609;52.430;4.668;2023-05-20T06:30:42;9.70;;;3.30;;
71777;SDS011;59609;52.430;4.668;2023-05-20T06:33:07;5.25;;;3.13;;
71777;SDS011;59609;52.430;4.668;2023-05-20T06:35:32;6.43;;;3.42;;
71777;SDS011;59609;52.430;4.668;2023-05-20T06:38:01;9.57;;;4.05;;
71777;SDS011;59609;52.430;4.668;2023-05-20T06:40:27;6.50;;;3.17;;
71777;SDS011;59609;52.430;4.668;2023-05-20T06:42:52;5.78;;;3.13;;
71777;SDS011;59609;52.430;4.668;2023-05-20T06:45:18;7.38;;;3.20;;
71777;SDS011;59609;52.430;4.668;2023-05-20T06:47:44;4.63;;;2.95;;
71777;SDS011;59609;52.430;4.668;2023-05-20T06:50:10;8.73;;;3.75;;
71777;SDS011;59609;52.430;4.668;2023-05-20T06:52:35;6.35;;;3.10;;
71777;SDS011;59609;52.430;4.668;2023-05-20T06:55:02;4.47;;;2.72;;
71777;SDS011;59609;52.430;4.668;2023-05-20T06:57:29;8.07;;;2.97;;
71777;SDS011;59609;52.430;4.668;2023-05-20T06:59:54;5.35;;;2.70;;
71777;SDS011;59609;52.430;4.668;2023-05-20T07:02:20;8.70;;;3.03;;
71777;SDS011;59609;52.430;4.668;2023-05-20T07:04:46;4.57;;;2.80;;
71777;SDS011;59609;52.430;4.668;2023-05-20T07:07:11;5.35;;;3.08;;
71777;SDS011;59609;52.430;4.668;2023-05-20T07:09:37;3.00;;;2.42;;
71777;SDS011;59609;52.430;4.668;2023-05-20T07:12:03;7.35;;;2.85;;
71777;SDS011;59609;52.430;4.668;2023-05-20T07:14:28;6.30;;;2.97;;
71777;SDS011;59609;52.430;4.668;2023-05-20T07:16:54;5.88;;;3.75;;
71777;SDS011;59609;52.430;4.668;2023-05-20T07:19:19;7.28;;;2.47;;
71777;SDS011;59609;52.430;4.668;2023-05-20T07:21:44;7.90;;;2.58;;
71777;SDS011;59609;52.430;4.668;2023-05-20T07:24:10;4.10;;;2.50;;
71777;SDS011;59609;52.430;4.668;2023-05-20T07:26:35;5.68;;;2.88;;
71777;SDS011;59609;52.430;4.668;2023-05-20T07:29:02;6.30;;;2.63;;
71777;SDS011;59609;52.430;4.668;2023-05-20T07:31:28;5.07;;;2.33;;
71777;SDS011;59609;52.430;4.668;2023-05-20T07:33:53;5.80;;;2.90;;
71777;SDS011;59609;52.430;4.668;2023-05-20T07:36:19;5.80;;;2.78;;
71777;SDS011;59609;52.430;4.668;2023-05-20T07:38:44;3.80;;;2.40;;
71777;SDS011;59609;52.430;4.668;2023-05-20T07:41:10;10.20;;;2.63;;
71777;SDS011;59609;52.430;4.668;2023-05-20T07:43:35;3.63;;;2.65;;
71777;SDS011;59609;52.430;4.668;2023-05-20T07:46:00;5.88;;;2.70;;
71777;SDS011;59609;52.430;4.668;2023-05-20T07:48:26;5.15;;;2.22;;
71777;SDS011;59609;52.430;4.668;2023-05-20T07:50:51;5.40;;;2.65;;
71777;SDS011;59609;52.430;4.668;2023-05-20T07:53:17;4.97;;;2.30;;
71777;SDS011;59609;52.430;4.668;2023-05-20T07:55:42;4.28;;;2.53;;
71777;SDS011;59609;52.430;4.668;2023-05-20T07:58:07;6.35;;;2.10;;
71777;SDS011;59609;52.430;4.668;2023-05-20T08:00:33;5.75;;;2.83;;
71777;SDS011;59609;52.430;4.668;2023-05-20T08:02:58;4.63;;;2.38;;
71777;SDS011;59609;52.430;4.668;2023-05-20T08:05:24;4.82;;;2.15;;
71777;SDS011;59609;52.430;4.668;2023-05-20T08:07:49;6.60;;;2.60;;
71777;SDS011;59609;52.430;4.668;2023-05-20T08:10:15;5.38;;;2.17;;
71777;SDS011;59609;52.430;4.668;2023-05-20T08:12:40;3.85;;;2.50;;
71777;SDS011;59609;52.430;4.668;2023-05-20T08:15:06;4.32;;;2.13;;
71777;SDS011;59609;52.430;4.668;2023-05-20T08:17:32;5.10;;;2.10;;
71777;SDS011;59609;52.430;4.668;2023-05-20T08:19:58;5.53;;;2.65;;
71777;SDS011;59609;52.430;4.668;2023-05-20T08:22:23;3.35;;;2.03;;
71777;SDS011;59609;52.430;4.668;2023-05-20T08:24:49;8.80;;;2.53;;
71777;SDS011;59609;52.430;4.668;2023-05-20T08:27:15;4.38;;;2.28;;
71777;SDS011;59609;52.430;4.668;2023-05-20T08:29:40;5.50;;;2.58;;
71777;SDS011;59609;52.430;4.668;2023-05-20T08:32:06;4.55;;;2.45;;
71777;SDS011;59609;52.430;4.668;2023-05-20T08:34:31;7.60;;;2.97;;
71777;SDS011;59609;52.430;4.668;2023-05-20T08:36:57;6.05;;;2.92;;
71777;SDS011;59609;52.430;4.668;2023-05-20T08:39:23;4.65;;;2.22;;
71777;SDS011;59609;52.430;4.668;2023-05-20T08:41:49;5.20;;;2.70;;
71777;SDS011;59609;52.430;4.668;2023-05-20T08:44:15;4.85;;;3.05;;
71777;SDS011;59609;52.430;4.668;2023-05-20T08:46:43;3.80;;;2.08;;
71777;SDS011;59609;52.430;4.668;2023-05-20T08:49:09;5.35;;;2.42;;
71777;SDS011;59609;52.430;4.668;2023-05-20T08:51:35;6.13;;;2.40;;
71777;SDS011;59609;52.430;4.668;2023-05-20T08:54:02;4.93;;;2.20;;
71777;SDS011;59609;52.430;4.668;2023-05-20T08:56:27;5.20;;;2.35;;
71777;SDS011;59609;52.430;4.668;2023-05-20T08:58:53;4.38;;;2.50;;
71777;SDS011;59609;52.430;4.668;2023-05-20T09:01:22;3.53;;;2.15;;
71777;SDS011;59609;52.430;4.668;2023-05-20T09:03:49;4.00;;;2.35;;
71777;SDS011;59609;52.430;4.668;2023-05-20T09:06:15;7.05;;;2.22;;
71777;SDS011;59609;52.430;4.668;2023-05-20T09:08:44;5.35;;;2.47;;
71777;SDS011;59609;52.430;4.668;2023-05-20T09:11:10;3.30;;;2.10;;
71777;SDS011;59609;52.430;4.668;2023-05-20T09:13:36;4.20;;;2.35;;
71777;SDS011;59609;52.430;4.668;2023-05-20T09:16:02;3.88;;;2.50;;
71777;SDS011;59609;52.430;4.668;2023-05-20T09:18:27;4.03;;;2.20;;
71777;SDS011;59609;52.430;4.668;2023-05-20T09:20:53;6.57;;;2.00;;
71777;SDS011;59609;52.430;4.668;2023-05-20T09:23:19;2.70;;;2.13;;
71777;SDS011;59609;52.430;4.668;2023-05-20T09:25:49;2.95;;;2.22;;
71777;SDS011;59609;52.430;4.668;2023-05-20T09:28:21;2.90;;;2.05;;
71777;SDS011;59609;52.430;4.668;2023-05-20T09:30:55;4.65;;;2.10;;
71777;SDS011;59609;52.430;4.668;2023-05-20T09:33:22;4.45;;;2.08;;
71777;SDS011;59609;52.430;4.668;2023-05-20T09:35:52;2.70;;;1.63;;
71777;SDS011;59609;52.430;4.668;2023-05-20T09:38:24;2.55;;;1.80;;
71777;SDS011;59609;52.430;4.668;2023-05-20T09:40:49;3.83;;;1.73;;
71777;SDS011;59609;52.430;4.668;2023-05-20T09:43:15;3.67;;;2.30;;
71777;SDS011;59609;52.430;4.668;2023-05-20T09:45:42;3.50;;;2.70;;
71777;SDS011;59609;52.430;4.668;2023-05-20T09:48:08;4.18;;;1.77;;
71777;SDS011;59609;52.430;4.668;2023-05-20T09:50:35;4.18;;;1.85;;
71777;SDS011;59609;52.430;4.668;2023-05-20T09:53:01;3.58;;;1.92;;
71777;SDS011;59609;52.430;4.668;2023-05-20T09:55:28;2.67;;;1.73;;
71777;SDS011;59609;52.430;4.668;2023-05-20T09:57:54;7.88;;;1.80;;
71777;SDS011;59609;52.430;4.668;2023-05-20T10:00:20;4.93;;;2.03;;
71777;SDS011;59609;52.430;4.668;2023-05-20T10:02:50;6.68;;;2.00;;
71777;SDS011;59609;52.430;4.668;2023-05-20T10:19:25;3.50;;;1.60;;
71777;SDS011;59609;52.430;4.668;2023-05-20T10:24:28;1.77;;;1.65;;
71777;SDS011;59609;52.430;4.668;2023-05-20T10:26:59;3.15;;;2.00;;
71777;SDS011;59609;52.430;4.668;2023-05-20T10:29:26;5.03;;;1.75;;
71777;SDS011;59609;52.430;4.668;2023-05-20T10:31:52;3.72;;;1.80;;
71777;SDS011;59609;52.430;4.668;2023-05-20T10:34:19;3.08;;;2.08;;
71777;SDS011;59609;52.430;4.668;2023-05-20T10:39:25;2.88;;;1.83;;
71777;SDS011;59609;52.430;4.668;2023-05-20T10:41:52;4.63;;;1.90;;
71777;SDS011;59609;52.430;4.668;2023-05-20T10:44:18;3.22;;;2.38;;
71777;SDS011;59609;52.430;4.668;2023-05-20T10:46:43;4.30;;;2.78;;
71777;SDS011;59609;52.430;4.668;2023-05-20T10:49:18;4.85;;;1.95;;
71777;SDS011;59609;52.430;4.668;2023-05-20T10:51:46;3.40;;;2.00;;
71777;SDS011;59609;52.430;4.668;2023-05-20T10:54:12;4.82;;;1.98;;
71777;SDS011;59609;52.430;4.668;2023-05-20T10:56:38;2.45;;;1.90;;
71777;SDS011;59609;52.430;4.668;2023-05-20T10:59:05;2.30;;;1.80;;
71777;SDS011;59609;52.430;4.668;2023-05-20T11:01:31;3.20;;;2.10;;
71777;SDS011;59609;52.430;4.668;2023-05-20T11:03:56;3.15;;;1.60;;
71777;SDS011;59609;52.430;4.668;2023-05-20T11:06:25;3.60;;;1.42;;
71777;SDS011;59609;52.430;4.668;2023-05-20T11:08:52;3.10;;;2.00;;
71777;SDS011;59609;52.430;4.668;2023-05-20T11:11:18;3.72;;;1.88;;
71777;SDS011;59609;52.430;4.668;2023-05-20T11:13:44;2.10;;;1.70;;
71777;SDS011;59609;52.430;4.668;2023-05-20T11:16:14;1.80;;;1.40;;
71777;SDS011;59609;52.430;4.668;2023-05-20T11:18:40;4.43;;;1.90;;
71777;SDS011;59609;52.430;4.668;2023-05-20T11:21:05;1.83;;;1.70;;
71777;SDS011;59609;52.430;4.668;2023-05-20T11:23:30;2.28;;;1.77;;
71777;SDS011;59609;52.430;4.668;2023-05-20T11:25:56;4.03;;;2.05;;
71777;SDS011;59609;52.430;4.668;2023-05-20T11:28:22;2.85;;;1.40;;
71777;SDS011;59609;52.430;4.668;2023-05-20T11:30:48;2.00;;;1.60;;
71777;SDS011;59609;52.430;4.668;2023-05-20T11:33:15;2.30;;;1.60;;
71777;SDS011;59609;52.430;4.668;2023-05-20T11:35:45;2.65;;;1.80;;
71777;SDS011;59609;52.430;4.668;2023-05-20T11:38:11;4.22;;;1.80;;
71777;SDS011;59609;52.430;4.668;2023-05-20T11:40:41;2.25;;;1.73;;
71777;SDS011;59609;52.430;4.668;2023-05-20T11:43:09;1.77;;;1.40;;
71777;SDS011;59609;52.430;4.668;2023-05-20T11:45:43;3.92;;;1.88;;
71777;SDS011;59609;52.430;4.668;2023-05-20T11:48:09;4.03;;;1.73;;
71777;SDS011;59609;52.430;4.668;2023-05-20T11:50:43;2.80;;;1.45;;
71777;SDS011;59609;52.430;4.668;2023-05-20T11:53:13;5.18;;;2.08;;
71777;SDS011;59609;52.430;4.668;2023-05-20T11:55:44;2.75;;;1.80;;
71777;SDS011;59609;52.430;4.668;2023-05-20T11:58:28;2.33;;;1.88;;
71777;SDS011;59609;52.430;4.668;2023-05-20T12:00:55;3.45;;;2.20;;
71777;SDS011;59609;52.430;4.668;2023-05-20T12:03:21;5.45;;;2.00;;
71777;SDS011;59609;52.430;4.668;2023-05-20T12:05:46;4.65;;;1.70;;
71777;SDS011;59609;52.430;4.668;2023-05-20T12:08:12;4.35;;;2.03;;
71777;SDS011;59609;52.430;4.668;2023-05-20T12:10:38;3.10;;;1.85;;
71777;SDS011;59609;52.430;4.668;2023-05-20T12:13:04;3.60;;;1.88;;
71777;SDS011;59609;52.430;4.668;2023-05-20T12:15:33;3.08;;;1.60;;
71777;SDS011;59609;52.430;4.668;2023-05-20T12:17:59;3.63;;;1.90;;
71777;SDS011;59609;52.430;4.668;2023-05-20T12:20:25;5.72;;;1.83;;
71777;SDS011;59609;52.430;4.668;2023-05-20T12:22:50;3.20;;;1.77;;
71777;SDS011;59609;52.430;4.668;2023-05-20T12:25:16;3.10;;;1.83;;
71777;SDS011;59609;52.430;4.668;2023-05-20T12:27:43;3.50;;;2.03;;
71777;SDS011;59609;52.430;4.668;2023-05-20T12:30:16;2.55;;;1.80;;
71777;SDS011;59609;52.430;4.668;2023-05-20T12:32:43;1.85;;;1.75;;
71777;SDS011;59609;52.430;4.668;2023-05-20T12:35:09;2.85;;;2.05;;
71777;SDS011;59609;52.430;4.668;2023-05-20T12:37:36;4.43;;;2.20;;
71777;SDS011;59609;52.430;4.668;2023-05-20T12:40:02;3.90;;;1.70;;
71777;SDS011;59609;52.430;4.668;2023-05-20T12:42:35;3.22;;;1.83;;
71777;SDS011;59609;52.430;4.668;2023-05-20T12:45:04;3.47;;;1.75;;
71777;SDS011;59609;52.430;4.668;2023-05-20T12:47:30;4.65;;;2.42;;
71777;SDS011;59609;52.430;4.668;2023-05-20T12:49:56;3.67;;;1.60;;
71777;SDS011;59609;52.430;4.668;2023-05-20T12:52:22;4.57;;;2.10;;
71777;SDS011;59609;52.430;4.668;2023-05-20T12:54:48;1.90;;;1.67;;
71777;SDS011;59609;52.430;4.668;2023-05-20T12:57:13;1.80;;;1.58;;
71777;SDS011;59609;52.430;4.668;2023-05-20T12:59:39;2.17;;;1.80;;
71777;SDS011;59609;52.430;4.668;2023-05-20T13:02:04;5.25;;;1.73;;
71777;SDS011;59609;52.430;4.668;2023-05-20T13:04:30;2.33;;;1.80;;
71777;SDS011;59609;52.430;4.668;2023-05-20T13:06:56;4.40;;;2.30;;
71777;SDS011;59609;52.430;4.668;2023-05-20T13:09:22;4.47;;;1.90;;
71777;SDS011;59609;52.430;4.668;2023-05-20T13:11:47;4.47;;;1.75;;
71777;SDS011;59609;52.430;4.668;2023-05-20T13:14:13;1.77;;;1.63;;
71777;SDS011;59609;52.430;4.668;2023-05-20T13:16:38;2.90;;;2.13;;
71777;SDS011;59609;52.430;4.668;2023-05-20T13:19:04;1.92;;;1.63;;
71777;SDS011;59609;52.430;4.668;2023-05-20T13:21:29;5.28;;;2.58;;
71777;SDS011;59609;52.430;4.668;2023-05-20T13:23:55;2.10;;;1.45;;
71777;SDS011;59609;52.430;4.668;2023-05-20T13:26:21;3.22;;;1.60;;
71777;SDS011;59609;52.430;4.668;2023-05-20T13:28:46;2.72;;;1.75;;
71777;SDS011;59609;52.430;4.668;2023-05-20T13:31:12;2.22;;;1.90;;
71777;SDS011;59609;52.430;4.668;2023-05-20T13:33:37;3.35;;;1.52;;
71777;SDS011;59609;52.430;4.668;2023-05-20T13:36:02;3.75;;;1.75;;
71777;SDS011;59609;52.430;4.668;2023-05-20T13:38:28;5.78;;;1.60;;
71777;SDS011;59609;52.430;4.668;2023-05-20T13:40:54;4.13;;;1.60;;
71777;SDS011;59609;52.430;4.668;2023-05-20T13:43:23;2.03;;;1.52;;
71777;SDS011;59609;52.430;4.668;2023-05-20T13:45:49;2.08;;;1.60;;
71777;SDS011;59609;52.430;4.668;2023-05-20T13:48:15;6.57;;;1.52;;
71777;SDS011;59609;52.430;4.668;2023-05-20T13:50:40;9.05;;;1.70;;
71777;SDS011;59609;52.430;4.668;2023-05-20T13:53:05;3.63;;;1.48;;
71777;SDS011;59609;52.430;4.668;2023-05-20T13:55:36;3.55;;;1.60;;
71777;SDS011;59609;52.430;4.668;2023-05-20T13:58:01;2.22;;;1.55;;
71777;SDS011;59609;52.430;4.668;2023-05-20T14:00:27;4.18;;;1.70;;
71777;SDS011;59609;52.430;4.668;2023-05-20T14:02:52;7.70;;;1.80;;
71777;SDS011;59609;52.430;4.668;2023-05-20T14:05:18;2.50;;;1.50;;
71777;SDS011;59609;52.430;4.668;2023-05-20T14:07:43;3.53;;;1.67;;
71777;SDS011;59609;52.430;4.668;2023-05-20T14:10:09;3.30;;;1.60;;
71777;SDS011;59609;52.430;4.668;2023-05-20T14:12:35;1.90;;;1.55;;
71777;SDS011;59609;52.430;4.668;2023-05-20T14:15:00;7.53;;;1.88;;
71777;SDS011;59609;52.430;4.668;2023-05-20T14:17:26;2.53;;;1.30;;
71777;SDS011;59609;52.430;4.668;2023-05-20T14:19:51;5.78;;;1.60;;
71777;SDS011;59609;52.430;4.668;2023-05-20T14:22:17;3.83;;;1.70;;
71777;SDS011;59609;52.430;4.668;2023-05-20T14:24:43;5.18;;;1.90;;
71777;SDS011;59609;52.430;4.668;2023-05-20T14:27:09;2.17;;;1.88;;
71777;SDS011;59609;52.430;4.668;2023-05-20T14:29:35;3.55;;;2.08;;
71777;SDS011;59609;52.430;4.668;2023-05-20T14:32:04;5.78;;;2.33;;
71777;SDS011;59609;52.430;4.668;2023-05-20T14:34:29;6.60;;;3.03;;
71777;SDS011;59609;52.430;4.668;2023-05-20T14:36:55;5.43;;;2.25;;
71777;SDS011;59609;52.430;4.668;2023-05-20T14:39:21;7.32;;;2.25;;
71777;SDS011;59609;52.430;4.668;2023-05-20T14:41:46;3.40;;;2.13;;
71777;SDS011;59609;52.430;4.668;2023-05-20T14:44:12;5.20;;;2.47;;
71777;SDS011;59609;52.430;4.668;2023-05-20T14:46:37;5.22;;;2.55;;
71777;SDS011;59609;52.430;4.668;2023-05-20T14:49:03;3.78;;;2.00;;
71777;SDS011;59609;52.430;4.668;2023-05-20T14:51:28;3.83;;;2.30;;
71777;SDS011;59609;52.430;4.668;2023-05-20T14:53:53;3.05;;;2.17;;
71777;SDS011;59609;52.430;4.668;2023-05-20T14:56:19;4.75;;;2.35;;
71777;SDS011;59609;52.430;4.668;2023-05-20T14:58:45;10.93;;;5.60;;